Decoded Metar for KHYA (HYANNIS in MA, USA) (IATA:HYA) | Meteo·Mobile Aviation Weather
aviador You're here:

KHYA Decoded Metar

HYANNIS in MA, USA
Report Time2018-08-20 17:56:00
UTC Time2018-08-20 18:43:40
Flight Rules mvfr MVFR
Wind020° at 11 Gusting to 21 kt
W.Decomp.*RWY 06: 10.0 kt HW 4.5 kt LCW
RWY 33: 4.5 kt HW 10.0 kt RCW
W.Rank020° ranks 7
Current wind is above 020° avg. (9.3)
Visibility9999 m
Phenomena:N/A
Clouds:Broken 017 Hf
Broken 024 Hf
Overcast 029 Hf
Expected CloudBase > 1,600 ft AGL from Temp-Dew spread
Ceiling1,700 ft
Temp22°C (ISA +7)
Dew Point18°C (78% RH)
AAT20.8°C
QNH1020 hPa
Density Alt942 ft
Elevation72 ft
Report Wrong Elevation
Raw Report
KHYA 201756Z 02011G21KT 10SM BKN017 BKN024 OVC029 22/18 A3011 RMK
AO2 SLP197 60001 T02170183 10228 20200 55003=

Extra information for KHYA:More info

Metar Taf Metar & Taf Last 4 Metars F.Rules Stats Wind Profile Meteogram Temp Stats Airport Information Weather charts Add Link Nearby VenuesMetar ALERT Operation Metar Decoded Social comments

AIRNAV info for KHYA